Time;durP1;ratioP1;P1;durP2;ratioP2;P2;SDS_P1;SDS_P2;PMS_P1;PMS_P2;Temp;Humidity;BMP_temperature;BMP_pressure;BME280_temperature;BME280_humidity;BME280_pressure;Samples;Min_cycle;Max_cycle;Signal;HPM_P1;HPM_P2
2023/12/01 00:01:04;;;;;;;7.60;5.32;;;;;;;17.59;48.92;100138.84;20863031;28;20111;-60
2023/12/01 00:11:06;;;;;;;7.03;4.72;;;;;;;17.61;48.47;100165.56;20828317;28;20056;-60
2023/12/01 00:21:08;;;;;;;6.50;4.68;;;;;;;17.61;48.29;100158.38;20843853;28;20045;-60
2023/12/01 00:31:09;;;;;;;5.80;4.18;;;;;;;17.66;47.97;100165.97;20851621;28;20099;-60
2023/12/01 00:41:11;;;;;;;6.57;4.80;;;;;;;17.64;47.59;100165.28;20851006;28;20497;-60
2023/12/01 00:51:19;;;;;;;6.10;4.15;;;;;;;17.61;47.38;100165.56;20869330;28;20064;-60
2023/12/01 01:01:21;;;;;;;4.93;3.45;;;;;;;17.65;46.95;100196.56;20826751;28;20428;-60
2023/12/01 01:11:23;;;;;;;6.10;4.28;;;;;;;17.68;46.62;100207.06;20877168;28;20528;-60
2023/12/01 01:21:26;;;;;;;6.05;4.15;;;;;;;17.70;46.20;100213.16;20881028;28;20440;-60
2023/12/01 01:31:28;;;;;;;4.70;3.63;;;;;;;17.64;46.21;100211.03;20849548;28;20091;-60
2023/12/01 01:41:30;;;;;;;4.57;3.55;;;;;;;17.64;45.99;100227.19;20827832;28;20084;-60
2023/12/01 01:51:35;;;;;;;4.68;3.25;;;;;;;17.63;45.70;100230.88;20859940;28;20519;-60
2023/12/01 02:01:39;;;;;;;4.35;3.28;;;;;;;17.61;45.53;100243.63;20859117;28;20678;-60
2023/12/01 02:11:42;;;;;;;3.95;3.22;;;;;;;17.56;45.31;100240.56;20831972;28;20076;-60
2023/12/01 02:21:45;;;;;;;3.58;2.72;;;;;;;17.59;45.09;100257.25;20856322;28;20095;-60
2023/12/01 02:31:47;;;;;;;3.25;2.75;;;;;;;17.46;45.05;100236.06;20820230;28;20044;-60
2023/12/01 02:41:50;;;;;;;4.90;3.53;;;;;;;17.56;44.74;100257.56;20849921;28;20456;-60
2023/12/01 02:51:52;;;;;;;3.55;2.88;;;;;;;17.54;44.58;100271.16;20869267;28;20044;-60
2023/12/01 03:01:54;;;;;;;3.17;2.60;;;;;;;17.54;44.38;100265.78;20820832;28;20421;-60
2023/12/01 03:11:56;;;;;;;3.10;2.78;;;;;;;17.51;44.23;100268.75;20819828;28;20057;-60
2023/12/01 03:21:57;;;;;;;3.95;3.03;;;;;;;17.51;43.95;100284.06;20811345;28;20096;-60
2023/12/01 03:31:59;;;;;;;2.90;2.45;;;;;;;17.53;43.81;100291.00;20836251;28;20129;-60
2023/12/01 03:42:01;;;;;;;3.53;2.85;;;;;;;17.51;43.60;100276.84;20836185;28;20076;-60
2023/12/01 03:52:03;;;;;;;4.07;3.10;;;;;;;17.48;43.55;100282.53;20869031;28;20053;-60
2023/12/01 04:02:04;;;;;;;3.80;2.95;;;;;;;17.49;43.49;100284.22;20825472;28;20068;-60
2023/12/01 04:12:06;;;;;;;3.88;2.97;;;;;;;17.46;43.41;100287.19;20808331;28;20615;-60
2023/12/01 04:22:08;;;;;;;3.78;3.30;;;;;;;17.45;43.25;100288.19;20800636;28;20537;-60
2023/12/01 04:32:10;;;;;;;3.67;3.03;;;;;;;17.46;42.95;100295.28;20869654;28;20045;-60
2023/12/01 04:42:12;;;;;;;4.43;3.80;;;;;;;17.47;42.74;100310.44;20856378;28;20053;-60
2023/12/01 04:52:13;;;;;;;4.35;3.75;;;;;;;17.48;42.59;100313.97;20838694;28;20102;-60
2023/12/01 05:02:15;;;;;;;4.45;3.63;;;;;;;17.48;42.56;100333.66;20848717;28;20445;-60
2023/12/01 05:12:17;;;;;;;5.00;4.00;;;;;;;17.47;42.50;100340.03;20854957;28;20064;-60
2023/12/01 05:22:18;;;;;;;4.97;4.28;;;;;;;17.45;42.28;100350.09;20861596;28;20087;-60
2023/12/01 05:32:22;;;;;;;4.72;3.90;;;;;;;17.45;42.12;100350.09;20845239;28;20053;-60
2023/12/01 05:42:23;;;;;;;4.93;3.88;;;;;;;17.46;41.80;100359.03;20842799;28;20064;-60
2023/12/01 05:52:25;;;;;;;4.05;3.45;;;;;;;17.44;41.63;100367.22;20867811;28;20049;-60
2023/12/01 06:02:28;;;;;;;4.47;3.60;;;;;;;17.44;41.38;100372.63;20860556;28;20467;-60
2023/12/01 06:12:30;;;;;;;4.13;3.50;;;;;;;17.44;41.21;100371.75;20838889;28;20528;-60
2023/12/01 06:22:32;;;;;;;4.28;3.47;;;;;;;17.44;41.05;100371.75;20852050;28;20124;-60
2023/12/01 06:32:34;;;;;;;4.70;3.70;;;;;;;17.37;41.06;100366.13;20838517;28;20146;-60
2023/12/01 06:42:50;;;;;;;4.15;3.55;;;;;;;17.31;40.91;100375.63;20868216;28;20041;-60
2023/12/01 06:52:55;;;;;;;4.63;3.55;;;;;;;17.33;40.68;100388.94;20825866;28;20509;-60
2023/12/01 07:02:57;;;;;;;4.70;3.63;;;;;;;17.24;40.52;100382.56;20845858;28;20045;-60
2023/12/01 07:12:59;;;;;;;3.85;3.30;;;;;;;17.28;40.65;100423.50;20837546;28;20052;-60
2023/12/01 07:23:01;;;;;;;4.05;3.42;;;;;;;17.29;40.54;100427.88;20837332;28;20045;-60
2023/12/01 07:33:08;;;;;;;5.20;3.90;;;;;;;17.27;40.34;100441.47;20851262;28;20052;-60
2023/12/01 07:43:10;;;;;;;4.63;3.90;;;;;;;17.25;40.20;100446.16;20820907;28;20052;-60
2023/12/01 07:53:12;;;;;;;4.10;3.50;;;;;;;17.24;40.25;100458.75;20835602;28;20053;-60
2023/12/01 08:03:14;;;;;;;3.75;3.28;;;;;;;17.31;39.94;100469.78;20833548;28;20045;-60
2023/12/01 08:13:16;;;;;;;3.97;3.35;;;;;;;17.32;40.09;100482.25;20841175;28;20055;-60
2023/12/01 08:23:17;;;;;;;3.88;3.22;;;;;;;17.34;40.09;100499.09;20875176;28;20045;-60
2023/12/01 08:33:19;;;;;;;3.78;3.03;;;;;;;16.94;39.69;100416.69;20843217;28;20051;-60
2023/12/01 08:43:21;;;;;;;3.58;3.05;;;;;;;17.51;39.87;100510.97;20872978;28;20636;-60
2023/12/01 08:53:23;;;;;;;3.75;2.92;;;;;;;17.67;39.67;100505.00;20879308;28;20132;-60
2023/12/01 09:03:25;;;;;;;3.70;2.80;;;;;;;17.76;39.47;100511.38;20830751;28;20132;-60
2023/12/01 09:13:27;;;;;;;3.08;2.72;;;;;;;17.83;39.57;100528.66;20845955;28;20313;-60
2023/12/01 09:23:29;;;;;;;2.88;2.55;;;;;;;17.86;39.47;100534.72;20836872;28;20575;-60
2023/12/01 09:33:31;;;;;;;3.17;2.88;;;;;;;17.91;39.33;100541.41;20852555;28;20528;-60
2023/12/01 09:43:33;;;;;;;2.67;2.20;;;;;;;17.93;39.35;100549.31;20852254;28;20067;-60
2023/12/01 09:53:35;;;;;;;2.58;2.38;;;;;;;17.93;39.28;100544.78;20876707;28;20106;-61
2023/12/01 10:03:37;;;;;;;3.40;2.65;;;;;;;17.93;39.87;100549.31;20802086;28;20501;-60
2023/12/01 10:13:39;;;;;;;2.55;2.08;;;;;;;17.90;40.39;100553.16;20709891;28;20114;-61
2023/12/01 10:23:41;;;;;;;2.10;1.90;;;;;;;17.95;41.04;100544.63;20773785;28;20150;-60
2023/12/01 10:33:42;;;;;;;3.67;1.90;;;;;;;18.04;41.36;100543.78;20751715;28;20556;-59
2023/12/01 10:43:45;;;;;;;1.83;1.63;;;;;;;18.03;42.08;100536.69;20712202;28;20049;-59
2023/12/01 10:53:47;;;;;;;2.38;1.70;;;;;;;18.30;41.92;100534.19;20776064;28;20064;-59
2023/12/01 11:03:49;;;;;;;1.90;1.63;;;;;;;18.54;41.53;100541.75;20820717;28;20409;-59
2023/12/01 11:14:09;;;;;;;2.03;1.80;;;;;;;18.71;41.42;100521.22;20829621;28;20520;-59
2023/12/01 11:24:26;;;;;;;1.50;1.40;;;;;;;18.89;40.93;100517.72;20813950;28;20049;-59
2023/12/01 11:34:28;;;;;;;1.75;1.50;;;;;;;19.01;40.64;100523.78;20812190;28;20057;-58
2023/12/01 11:44:40;;;;;;;1.77;1.58;;;;;;;19.06;40.72;100540.38;20821507;28;20506;-59
2023/12/01 11:54:42;;;;;;;1.98;1.67;;;;;;;19.05;41.14;100542.19;20791524;28;20057;-60
2023/12/01 12:04:46;;;;;;;1.90;1.70;;;;;;;19.15;41.28;100542.13;20784126;28;20171;-60
2023/12/01 12:14:51;;;;;;;;;;;;;;;19.18;41.45;100539.13;20793938;28;20050;-59
2023/12/01 12:24:53;;;;;;;1.77;1.42;;;;;;;19.19;41.70;100546.22;20811629;28;19978;-59
2023/12/01 12:34:55;;;;;;;1.42;1.30;;;;;;;19.21;41.69;100543.34;20766473;28;20357;-59
2023/12/01 12:44:56;;;;;;;1.45;1.35;;;;;;;19.22;41.68;100545.91;20790077;28;20061;-59
2023/12/01 12:54:58;;;;;;;1.80;1.60;;;;;;;19.24;42.01;100554.69;20779936;28;20061;-59
2023/12/01 13:05:00;;;;;;;1.52;1.42;;;;;;;19.24;42.09;100549.31;20802607;28;20045;-59
2023/12/01 13:15:02;;;;;;;2.10;1.52;;;;;;;19.24;41.94;100554.69;20804835;28;20057;-59
2023/12/01 13:25:05;;;;;;;1.48;1.20;;;;;;;19.19;41.80;100554.31;20794327;28;20045;-59
2023/12/01 13:35:07;;;;;;;1.58;1.48;;;;;;;19.16;41.87;100546.53;20835867;28;20480;-59
2023/12/01 13:45:09;;;;;;;1.85;1.30;;;;;;;19.10;41.66;100552.53;20824361;28;20072;-59
2023/12/01 13:55:13;;;;;;;2.03;1.83;;;;;;;19.05;41.66;100565.66;20804485;28;20121;-59
2023/12/01 14:05:17;;;;;;;1.80;1.38;;;;;;;19.01;41.84;100564.25;20829214;28;20050;-59
2023/12/01 14:15:19;;;;;;;1.98;1.75;;;;;;;18.93;41.73;100567.66;20843341;28;20475;-59
2023/12/01 14:25:21;;;;;;;1.50;1.40;;;;;;;18.87;41.74;100563.72;20820571;28;20052;-59
2023/12/01 14:35:22;;;;;;;2.35;1.50;;;;;;;18.83;41.68;100568.59;20833275;28;20490;-59
2023/12/01 14:45:24;;;;;;;1.60;1.50;;;;;;;18.80;41.76;100554.53;20832080;28;20057;-59
2023/12/01 14:55:27;;;;;;;2.53;1.50;;;;;;;18.79;41.55;100542.06;20839371;28;20061;-59
2023/12/01 15:05:29;;;;;;;1.17;1.08;;;;;;;18.75;41.57;100532.56;20818162;28;20398;-59
2023/12/01 15:15:30;;;;;;;1.42;1.33;;;;;;;18.66;41.52;100519.00;20832127;28;20571;-59
2023/12/01 15:25:33;;;;;;;1.42;1.27;;;;;;;18.59;41.34;100509.81;20878025;28;20137;-59
2023/12/01 15:35:35;;;;;;;2.10;1.50;;;;;;;18.53;41.03;100540.06;20876066;28;20057;-59
2023/12/01 15:45:37;;;;;;;1.50;1.40;;;;;;;18.37;40.96;100548.81;20852511;28;20065;-59
2023/12/01 15:55:38;;;;;;;1.75;1.60;;;;;;;18.32;41.05;100596.88;20833820;28;20529;-58
2023/12/01 16:05:40;;;;;;;3.13;1.80;;;;;;;18.19;41.15;100594.53;20832404;28;20050;-58
2023/12/01 16:15:42;;;;;;;2.30;1.70;;;;;;;18.15;41.39;100595.81;20808520;28;20076;-67
2023/12/01 16:25:45;;;;;;;5.05;1.80;;;;;;;17.98;41.94;100603.59;20797565;28;20050;-67
2023/12/01 16:35:47;;;;;;;2.30;2.10;;;;;;;17.91;43.63;100613.25;20797515;28;20069;-66
2023/12/01 16:45:49;;;;;;;2.83;2.50;;;;;;;17.93;43.84;100608.56;20793944;28;20049;-65
2023/12/01 16:55:54;;;;;;;2.67;2.20;;;;;;;17.78;44.12;100614.41;20797577;28;20175;-67
2023/12/01 17:05:55;;;;;;;2.90;2.20;;;;;;;17.78;44.10;100611.72;20807178;28;20148;-65
2023/12/01 17:15:57;;;;;;;2.42;2.10;;;;;;;17.78;44.48;100622.47;20789174;28;20057;-64
2023/12/01 17:25:59;;;;;;;2.03;1.83;;;;;;;17.75;44.53;100655.06;20788538;28;20590;-66
2023/12/01 17:36:01;;;;;;;3.15;2.30;;;;;;;17.65;44.85;100641.59;20814859;28;20053;-66
2023/12/01 17:46:03;;;;;;;2.85;1.60;;;;;;;17.71;44.64;100631.25;20801083;28;20041;-66
2023/12/01 17:56:05;;;;;;;2.58;1.90;;;;;;;17.89;44.55;100618.75;20796654;28;20051;-65
2023/12/01 18:06:09;;;;;;;2.28;1.77;;;;;;;17.91;44.59;100643.72;20783292;28;20437;-66
2023/12/01 18:16:11;;;;;;;2.05;1.85;;;;;;;17.96;44.10;100645.97;20805888;28;20053;-65
